Terminal Aerodrome Forecast
Issued by NWS

Home | Current Version | Previous Version | Graphics & Text | Print | Product List | Glossary On
Versions: 1 2 3 4 5 6 7 8 9 10 11 12 13 14 15 16 17 18
000
FTUS43 KLSX 231259 AAA
TAFSUS
TAF AMD
KSUS 231259Z 2313/2412 03009KT P6SM -SHRA OVC045
      TEMPO 2314/2316 3SM RA OVC025
     FM231600 04009KT P6SM OVC025
     FM240300 02006KT P6SM OVC015=

USA.gov is the U.S. government's official web portal to all federal, state and local government web resources and services.